createdAt,value
2018-03-04T00:00:29.950Z,65.17
2018-03-04T00:02:57.498Z,59.40
2018-03-04T00:05:25.822Z,90.77
2018-03-04T00:07:53.356Z,60.23
2018-03-04T00:10:20.916Z,65.60
2018-03-04T00:12:48.479Z,57.87
2018-03-04T00:15:16.045Z,53.53
2018-03-04T00:17:43.587Z,51.13
2018-03-04T00:20:11.150Z,59.97
2018-03-04T00:22:41.517Z,49.27
2018-03-04T00:25:09.077Z,64.43
2018-03-04T00:27:36.618Z,55.97
2018-03-04T00:30:04.190Z,56.50
2018-03-04T00:32:31.863Z,112.77
2018-03-04T00:34:59.426Z,71.43
2018-03-04T00:37:26.958Z,94.13
2018-03-04T00:39:54.508Z,71.13
2018-03-04T00:42:22.038Z,72.47
2018-03-04T00:44:50.367Z,61.50
2018-03-04T00:47:17.904Z,74.70
2018-03-04T00:49:45.589Z,69.53
2018-03-04T00:52:13.131Z,68.93
2018-03-04T00:54:40.687Z,74.67
2018-03-04T00:57:08.217Z,67.70
2018-03-04T00:59:36.539Z,71.37
2018-03-04T01:02:04.106Z,74.27
2018-03-04T01:04:31.666Z,51.90
2018-03-04T01:06:59.233Z,87.50
2018-03-04T01:09:27.594Z,91.43
2018-03-04T01:11:55.130Z,63.70
2018-03-04T01:14:22.672Z,50.07
2018-03-04T01:16:51.000Z,49.40
2018-03-04T01:19:18.549Z,49.37
2018-03-04T01:21:46.117Z,45.10
2018-03-04T01:24:13.650Z,49.97
2018-03-04T01:26:41.210Z,47.90
2018-03-04T01:29:08.738Z,48.47
2018-03-04T01:31:37.067Z,43.13
2018-03-04T01:34:04.598Z,44.10
2018-03-04T01:36:32.165Z,48.30
2018-03-04T01:38:59.694Z,43.27
2018-03-04T01:41:28.023Z,44.37
2018-03-04T01:43:55.558Z,41.07
2018-03-04T01:46:23.116Z,46.93
2018-03-04T01:48:50.650Z,43.10
2018-03-04T01:51:18.973Z,50.30
2018-03-04T01:53:46.506Z,44.03
2018-03-04T01:56:14.071Z,42.13
2018-03-04T01:58:41.630Z,38.20
2018-03-04T02:01:09.198Z,41.63
2018-03-04T02:03:36.766Z,48.30
2018-03-04T02:06:04.320Z,47.37
2018-03-04T02:08:31.851Z,52.40
2018-03-04T02:11:00.177Z,47.10
2018-03-04T02:13:27.705Z,47.27
2018-03-04T02:15:55.262Z,66.13
2018-03-04T02:18:22.795Z,43.03
2018-03-04T02:20:51.125Z,42.17
2018-03-04T02:23:18.666Z,40.27
2018-03-04T02:25:46.228Z,40.93
2018-03-04T02:28:13.764Z,50.50
2018-03-04T02:30:42.111Z,45.63
2018-03-04T02:33:09.659Z,39.40
2018-03-04T02:35:37.242Z,51.20
2018-03-04T02:38:04.774Z,66.83
2018-03-04T02:40:32.333Z,51.27
2018-03-04T02:42:59.868Z,46.77
2018-03-04T02:45:27.438Z,43.90
2018-03-04T02:47:55.168Z,53.40
2018-03-04T02:50:23.489Z,45.70
2018-03-04T02:52:51.058Z,46.90
2018-03-04T02:55:18.624Z,45.73
2018-03-04T02:57:46.157Z,49.83
2018-03-04T03:00:13.730Z,44.87
2018-03-04T03:02:41.277Z,49.97
2018-03-04T03:05:08.841Z,73.37
2018-03-04T03:07:36.374Z,42.83
2018-03-04T03:10:03.939Z,54.03
2018-03-04T03:12:31.561Z,46.17
2018-03-04T03:14:59.101Z,54.03
2018-03-04T03:17:26.635Z,42.00
2018-03-04T03:19:54.190Z,45.23
2018-03-04T03:22:21.718Z,53.03
2018-03-04T03:24:50.014Z,47.17
2018-03-04T03:27:17.597Z,43.57
2018-03-04T03:29:45.134Z,48.23
2018-03-04T03:32:12.702Z,42.30
2018-03-04T03:34:40.239Z,41.13
2018-03-04T03:37:08.571Z,41.63
2018-03-04T03:39:36.104Z,41.30
2018-03-04T03:42:03.662Z,44.03
2018-03-04T03:44:31.190Z,53.10
2018-03-04T03:46:59.523Z,73.70
2018-03-04T03:49:27.055Z,83.10
2018-03-04T03:51:54.609Z,52.40
2018-03-04T03:54:22.138Z,39.53
2018-03-04T03:56:49.717Z,43.13
2018-03-04T03:59:18.020Z,40.93
2018-03-04T04:01:45.570Z,48.53
2018-03-04T04:04:13.098Z,54.50
2018-03-04T04:06:41.417Z,48.80
2018-03-04T04:09:08.964Z,52.83
2018-03-04T04:11:36.566Z,51.63
2018-03-04T04:14:04.103Z,77.87
2018-03-04T04:16:31.661Z,47.30
2018-03-04T04:18:59.202Z,39.70
2018-03-04T04:21:26.754Z,39.50
2018-03-04T04:23:54.290Z,38.53
2018-03-04T04:26:21.890Z,39.30
2018-03-04T04:28:49.436Z,40.40
2018-03-04T04:31:17.010Z,38.30
2018-03-04T04:33:44.537Z,36.20
2018-03-04T04:36:12.937Z,37.93
2018-03-04T04:38:40.507Z,35.87
2018-03-04T04:41:08.057Z,37.83
2018-03-04T04:43:35.636Z,39.27
2018-03-04T04:46:03.496Z,37.93
2018-03-04T04:48:31.226Z,36.67
2018-03-04T04:50:58.860Z,35.50
2018-03-04T04:53:26.448Z,36.43
2018-03-04T04:55:54.895Z,34.83
2018-03-04T04:58:22.450Z,35.57
2018-03-04T05:00:50.015Z,37.47
2018-03-04T05:03:17.547Z,52.97
2018-03-04T05:05:45.101Z,49.23
2018-03-04T05:08:12.643Z,45.87
2018-03-04T05:10:40.967Z,43.30
2018-03-04T05:13:08.570Z,51.50
2018-03-04T05:15:36.897Z,52.77
2018-03-04T05:18:04.439Z,44.07
2018-03-04T05:20:32.102Z,36.80
2018-03-04T05:22:59.634Z,38.23
2018-03-04T05:25:27.954Z,38.37
2018-03-04T05:27:55.488Z,34.27
2018-03-04T05:30:23.110Z,35.87
2018-03-04T05:32:50.725Z,38.40
2018-03-04T05:35:18.342Z,33.57
2018-03-04T05:37:45.903Z,33.77
2018-03-04T05:40:14.278Z,33.30
2018-03-04T05:42:41.830Z,33.50
2018-03-04T05:45:09.434Z,33.80
2018-03-04T05:47:37.201Z,30.40
2018-03-04T05:50:04.739Z,31.57
2018-03-04T05:52:33.064Z,32.50
2018-03-04T05:55:00.604Z,35.17
2018-03-04T05:57:28.155Z,41.37
2018-03-04T05:59:55.682Z,56.00
2018-03-04T06:02:24.013Z,41.03
2018-03-04T06:04:51.553Z,35.77
2018-03-04T06:07:19.117Z,35.80
2018-03-04T06:09:46.654Z,32.87
2018-03-04T06:12:14.970Z,29.80
2018-03-04T06:14:42.504Z,31.97
2018-03-04T06:17:10.068Z,31.20
2018-03-04T06:19:37.601Z,30.37
2018-03-04T06:22:05.936Z,36.23
2018-03-04T06:24:33.471Z,40.50
2018-03-04T06:27:01.036Z,33.50
2018-03-04T06:29:28.577Z,39.53
2018-03-04T06:31:56.135Z,48.63
2018-03-04T06:34:23.671Z,63.27
2018-03-04T06:57:21.707Z,57.55
2018-03-04T06:59:49.251Z,47.28
2018-03-04T07:02:17.590Z,44.03
2018-03-04T07:04:45.125Z,51.20
2018-03-04T07:07:12.756Z,50.03
2018-03-04T07:09:41.058Z,32.60
2018-03-04T07:12:08.615Z,56.20
2018-03-04T07:14:36.162Z,58.25
2018-03-04T07:17:03.735Z,65.07
2018-03-04T07:19:31.266Z,64.43
2018-03-04T07:21:59.594Z,76.72
2018-03-04T07:24:27.129Z,66.00
2018-03-04T07:26:54.690Z,75.03
2018-03-04T07:29:22.226Z,61.27
2018-03-04T07:31:50.550Z,63.90
2018-03-04T07:34:18.086Z,48.40
2018-03-04T07:36:45.645Z,52.03
2018-03-04T07:39:13.179Z,42.33
2018-03-04T07:41:41.501Z,38.70
2018-03-04T07:44:09.035Z,25.37
2018-03-04T07:46:36.585Z,31.70
2018-03-04T07:49:04.890Z,30.70
2018-03-04T07:51:32.447Z,30.23
2018-03-04T07:53:59.975Z,41.00
2018-03-04T07:56:28.296Z,49.27
2018-03-04T07:58:55.829Z,47.13
2018-03-04T08:01:23.387Z,43.83
2018-03-04T08:03:50.926Z,44.17
2018-03-04T08:06:19.259Z,30.70
2018-03-04T08:08:46.786Z,46.23
2018-03-04T08:11:14.347Z,39.00
2018-03-04T08:13:41.870Z,43.40
2018-03-04T08:16:09.430Z,39.07
2018-03-04T08:18:37.001Z,48.47
2018-03-04T08:21:05.293Z,45.97
2018-03-04T08:23:33.614Z,40.40
2018-03-04T08:29:02.412Z,36.93
2018-03-04T08:31:29.986Z,40.13
2018-03-04T08:33:57.526Z,32.37
2018-03-04T08:36:25.090Z,31.27
2018-03-04T08:38:52.647Z,30.90
2018-03-04T08:41:20.182Z,26.20
2018-03-04T08:43:47.743Z,30.33
2018-03-04T08:46:15.273Z,35.97
2018-03-04T08:48:42.834Z,26.47
2018-03-04T08:51:11.205Z,25.97
2018-03-04T08:53:38.775Z,31.53
2018-03-04T08:56:06.310Z,26.50
2018-03-04T08:58:33.875Z,22.30
2018-03-04T09:01:01.420Z,26.10
2018-03-04T09:03:29.032Z,36.17
2018-03-04T09:05:56.540Z,25.43
2018-03-04T09:08:24.106Z,27.13
2018-03-04T09:10:51.646Z,26.20
2018-03-04T09:13:19.202Z,23.43
2018-03-04T09:15:46.732Z,21.77
2018-03-04T09:18:14.286Z,21.67
2018-03-04T09:20:42.582Z,22.60
2018-03-04T09:23:10.143Z,21.43
2018-03-04T09:25:37.761Z,22.13
2018-03-04T09:28:05.304Z,23.47
2018-03-04T09:30:32.838Z,20.63
2018-03-04T09:33:00.395Z,20.20
2018-03-04T09:35:27.919Z,20.00
2018-03-04T09:37:56.262Z,21.83
2018-03-04T09:40:23.789Z,21.33
2018-03-04T09:42:51.386Z,23.00
2018-03-04T09:45:18.914Z,23.30
2018-03-04T09:47:46.474Z,23.83
2018-03-04T09:50:14.007Z,23.23
2018-03-04T09:52:41.567Z,21.30
2018-03-04T09:55:09.095Z,21.63
2018-03-04T09:57:36.649Z,18.93
2018-03-04T10:00:04.179Z,17.93
2018-03-04T10:02:31.731Z,20.30
2018-03-04T10:04:59.258Z,18.60
2018-03-04T10:07:27.578Z,17.47
2018-03-04T10:09:55.102Z,18.43
2018-03-04T10:12:22.651Z,19.13
2018-03-04T10:14:50.956Z,16.90
2018-03-04T10:17:18.510Z,17.70
2018-03-04T10:19:46.034Z,17.13
2018-03-04T10:22:13.562Z,16.63
2018-03-04T10:24:41.114Z,17.57
2018-03-04T10:27:08.682Z,17.10
2018-03-04T10:29:36.238Z,15.47
2018-03-04T10:32:03.776Z,17.77
2018-03-04T10:34:31.363Z,16.40
2018-03-04T10:36:58.899Z,16.63
2018-03-04T10:39:26.449Z,16.00
2018-03-04T10:41:53.986Z,15.80
2018-03-04T10:44:22.426Z,16.63
2018-03-04T10:46:49.958Z,15.63
2018-03-04T10:49:17.511Z,14.33
2018-03-04T10:51:45.054Z,16.13
2018-03-04T10:54:12.608Z,17.10
2018-03-04T10:56:40.899Z,17.97
2018-03-04T10:59:08.528Z,15.90
2018-03-04T11:01:44.495Z,15.53
2018-03-04T11:04:13.013Z,15.17
2018-03-04T11:06:40.563Z,14.10
2018-03-04T11:09:08.146Z,14.40
2018-03-04T11:11:35.898Z,15.37
2018-03-04T11:14:04.277Z,14.70
2018-03-04T11:16:31.817Z,14.80
2018-03-04T11:18:59.379Z,14.90
2018-03-04T11:21:26.916Z,14.53
2018-03-04T11:23:55.244Z,14.67
2018-03-04T11:26:22.828Z,14.50
2018-03-04T11:28:50.460Z,14.40
2018-03-04T11:31:18.753Z,14.27
2018-03-04T11:33:46.311Z,12.73
2018-03-04T11:36:13.852Z,15.30
2018-03-04T11:38:41.408Z,13.37
2018-03-04T11:41:09.708Z,13.00
2018-03-04T11:43:37.265Z,13.30
2018-03-04T11:46:04.795Z,13.17
2018-03-04T11:48:32.349Z,14.17
2018-03-04T11:50:59.882Z,13.70
2018-03-04T11:53:28.209Z,14.10
2018-03-04T11:55:55.747Z,13.33
2018-03-04T11:58:23.317Z,12.00
2018-03-04T12:00:50.842Z,11.50
2018-03-04T12:03:19.166Z,12.33
2018-03-04T12:05:46.703Z,12.70
2018-03-04T12:08:14.294Z,14.50
2018-03-04T12:10:41.829Z,12.13
2018-03-04T12:13:09.404Z,12.20
2018-03-04T12:15:37.015Z,12.30
2018-03-04T12:18:05.348Z,12.07
2018-03-04T12:20:32.882Z,10.83
2018-03-04T12:23:00.462Z,11.20
2018-03-04T12:25:28.012Z,11.47
2018-03-04T12:27:55.578Z,12.10
2018-03-04T12:30:23.119Z,11.63
2018-03-04T12:32:50.658Z,11.67
2018-03-04T12:35:18.983Z,12.97
2018-03-04T12:37:47.294Z,12.17
2018-03-04T12:40:14.857Z,11.90
2018-03-04T12:42:42.398Z,11.30
2018-03-04T12:45:09.955Z,12.33
2018-03-04T12:47:37.507Z,11.93
2018-03-04T12:50:05.063Z,11.27
2018-03-04T12:52:32.595Z,12.07
2018-03-04T12:55:00.154Z,11.97
2018-03-04T12:57:27.743Z,12.30
2018-03-04T12:59:55.262Z,13.10
2018-03-04T13:02:23.562Z,11.23
2018-03-04T13:04:51.115Z,12.07
2018-03-04T13:07:18.649Z,9.83
2018-03-04T13:09:46.971Z,11.10
2018-03-04T13:12:14.514Z,10.60
2018-03-04T13:14:42.769Z,10.50
2018-03-04T13:17:11.068Z,11.63
2018-03-04T13:19:38.618Z,10.03
2018-03-04T13:22:06.157Z,9.90
2018-03-04T13:24:34.471Z,9.90
2018-03-04T13:27:01.998Z,10.00
2018-03-04T13:29:30.323Z,10.30
2018-03-04T13:31:57.884Z,10.57
2018-03-04T13:34:25.477Z,10.70
2018-03-04T13:36:52.998Z,9.90
2018-03-04T13:39:20.559Z,9.90
2018-03-04T13:41:48.091Z,8.90
2018-03-04T13:44:15.649Z,9.00
2018-03-04T13:46:43.181Z,8.40
2018-03-04T13:49:10.741Z,9.40
2018-03-04T13:51:38.262Z,9.80
2018-03-04T13:54:05.829Z,10.00
2018-03-04T13:56:34.848Z,10.17
2018-03-04T13:59:02.426Z,9.90
2018-03-04T14:01:30.735Z,10.30
2018-03-04T14:03:58.291Z,10.00
2018-03-04T14:06:25.821Z,10.07
2018-03-04T14:08:54.142Z,7.87
2018-03-04T14:11:21.665Z,7.80
2018-03-04T14:13:49.985Z,7.57
2018-03-04T14:16:17.518Z,6.10
2018-03-04T14:18:45.071Z,6.17
2018-03-04T14:21:12.606Z,6.73
2018-03-04T14:23:40.934Z,6.93
2018-03-04T14:26:08.489Z,9.87
2018-03-04T14:28:36.058Z,8.73
2018-03-04T14:31:03.617Z,9.17
2018-03-04T14:33:31.168Z,10.30
2018-03-04T14:35:58.686Z,9.43
2018-03-04T14:38:26.224Z,10.13
2018-03-04T14:40:53.823Z,11.17
2018-03-04T14:43:21.371Z,11.93
2018-03-04T14:45:49.724Z,10.83
2018-03-04T14:48:17.267Z,11.30
2018-03-04T14:50:44.827Z,10.80
2018-03-04T14:53:12.390Z,9.90
2018-03-04T14:55:39.941Z,10.70
2018-03-04T14:58:07.463Z,10.63
2018-03-04T15:00:35.018Z,11.97
2018-03-04T15:03:03.325Z,11.90
2018-03-04T15:05:30.888Z,15.03
2018-03-04T15:07:58.467Z,15.00
2018-03-04T15:10:26.200Z,13.50
2018-03-04T15:12:53.730Z,15.40
2018-03-04T15:15:22.059Z,14.83
2018-03-04T15:17:49.597Z,15.10
2018-03-04T15:20:17.151Z,14.40
2018-03-04T15:22:44.684Z,14.77
2018-03-04T15:25:13.009Z,14.83
2018-03-04T15:27:40.630Z,14.33
2018-03-04T15:30:08.955Z,14.97
2018-03-04T15:32:36.483Z,13.80
2018-03-04T15:35:04.069Z,13.70
2018-03-04T15:37:31.594Z,14.63
2018-03-04T15:39:59.151Z,14.60
2018-03-04T15:42:27.486Z,14.93
2018-03-04T15:44:55.053Z,15.90
2018-03-04T15:47:22.621Z,15.10
2018-03-04T15:49:50.220Z,15.37
2018-03-04T15:52:17.725Z,16.23
2018-03-04T15:54:45.297Z,16.17
2018-03-04T15:57:12.830Z,15.37
2018-03-04T15:59:40.384Z,15.30
2018-03-04T16:02:08.675Z,16.67
2018-03-04T16:04:36.248Z,15.70
2018-03-04T16:07:03.771Z,14.73
2018-03-04T16:09:31.322Z,13.73
2018-03-04T16:11:58.858Z,14.67
2018-03-04T16:14:27.187Z,15.67
2018-03-04T16:16:54.727Z,14.47
2018-03-04T16:19:22.285Z,15.17
2018-03-04T16:21:49.815Z,15.80
2018-03-04T16:24:18.139Z,14.83
2018-03-04T16:26:45.663Z,17.53
2018-03-04T16:29:13.224Z,16.53
2018-03-04T16:31:40.761Z,14.57
2018-03-04T16:34:09.083Z,16.60
2018-03-04T16:36:36.616Z,16.80
2018-03-04T16:39:04.938Z,14.17
2018-03-04T16:41:32.475Z,15.93
2018-03-04T16:44:00.032Z,16.63
2018-03-04T16:46:27.596Z,14.43
2018-03-04T16:48:55.124Z,17.33
2018-03-04T16:51:23.447Z,16.40
2018-03-04T16:53:50.981Z,16.33
2018-03-04T16:56:18.542Z,15.67
2018-03-04T16:58:46.090Z,16.60
2018-03-04T17:01:14.415Z,17.63
2018-03-04T17:03:41.953Z,19.23
2018-03-04T17:06:10.287Z,15.20
2018-03-04T17:08:38.586Z,15.90
2018-03-04T17:11:06.146Z,18.00
2018-03-04T17:13:33.676Z,14.30
2018-03-04T17:16:01.230Z,15.70
2018-03-04T17:18:28.765Z,15.70
2018-03-04T17:20:56.318Z,15.70
2018-03-04T17:23:23.843Z,16.47
2018-03-04T17:25:51.406Z,14.10
2018-03-04T17:28:18.939Z,16.03
2018-03-04T17:30:47.266Z,18.03
2018-03-04T17:33:14.803Z,15.30
2018-03-04T17:35:42.366Z,17.90
2018-03-04T17:38:09.907Z,18.53
2018-03-04T17:40:38.236Z,16.73
2018-03-04T17:43:05.766Z,15.67
2018-03-04T17:45:33.339Z,15.20
2018-03-04T17:48:00.924Z,11.63
2018-03-04T17:50:28.460Z,10.80
2018-03-04T17:52:55.994Z,11.60
2018-03-04T17:55:23.550Z,10.97
2018-03-04T17:57:51.855Z,10.17
2018-03-04T18:00:19.405Z,10.60
2018-03-04T18:02:46.951Z,7.80
2018-03-04T18:05:14.516Z,7.27
2018-03-04T18:07:42.051Z,7.30
2018-03-04T18:10:10.381Z,8.10
2018-03-04T18:12:37.910Z,9.27
2018-03-04T18:15:05.462Z,7.33
2018-03-04T18:17:33.755Z,7.70
2018-03-04T18:20:01.315Z,8.30
2018-03-04T18:22:28.847Z,6.50
2018-03-04T18:24:57.171Z,7.50
2018-03-04T18:27:24.715Z,7.90
2018-03-04T18:29:52.264Z,6.47
2018-03-04T18:32:19.803Z,7.40
2018-03-04T18:34:48.120Z,7.67
2018-03-04T18:37:15.653Z,7.17
2018-03-04T18:39:43.204Z,6.83
2018-03-04T18:42:11.498Z,7.43
2018-03-04T18:44:39.055Z,6.50
2018-03-04T18:47:06.587Z,8.00
2018-03-04T18:49:34.134Z,7.93
2018-03-04T18:52:01.659Z,7.13
2018-03-04T18:54:29.215Z,8.83
2018-03-04T18:56:56.741Z,8.60
2018-03-04T18:59:25.046Z,6.27
2018-03-04T19:01:52.607Z,8.60
2018-03-04T19:04:20.130Z,8.73
2018-03-04T19:06:48.470Z,9.30
2018-03-04T19:09:16.004Z,8.87
2018-03-04T19:11:43.558Z,8.60
2018-03-04T19:14:11.090Z,8.40
2018-03-04T19:16:39.406Z,9.47
2018-03-04T19:19:06.930Z,8.00
2018-03-04T19:21:35.246Z,8.77
2018-03-04T19:24:02.778Z,9.07
2018-03-04T19:26:30.347Z,10.87
2018-03-04T19:28:57.878Z,7.97
2018-03-04T19:31:26.203Z,9.33
2018-03-04T19:33:53.735Z,7.33
2018-03-04T19:36:21.294Z,8.07
2018-03-04T19:38:48.822Z,9.17
2018-03-04T19:41:16.639Z,9.13
2018-03-04T19:43:44.193Z,11.70
2018-03-04T19:46:11.748Z,11.93
2018-03-04T19:48:39.278Z,11.40
2018-03-04T19:51:06.859Z,15.20
2018-03-04T19:53:34.447Z,11.90
2018-03-04T19:56:01.977Z,10.00
2018-03-04T19:58:30.031Z,9.50
2018-03-04T20:00:58.362Z,8.67
2018-03-04T20:03:26.655Z,8.47
2018-03-04T20:05:54.207Z,9.00
2018-03-04T20:08:21.733Z,8.07
2018-03-04T20:10:49.282Z,6.97
2018-03-04T20:13:16.814Z,7.53
2018-03-04T20:15:44.342Z,9.47
2018-03-04T20:18:11.935Z,9.63
2018-03-04T20:20:40.238Z,10.57
2018-03-04T20:23:07.795Z,9.03
2018-03-04T20:25:35.334Z,8.47
2018-03-04T20:28:03.883Z,8.77
2018-03-04T20:30:31.416Z,8.60
2018-03-04T20:32:58.975Z,9.90
2018-03-04T20:35:26.528Z,12.97
2018-03-04T20:37:54.083Z,12.47
2018-03-04T20:40:21.613Z,11.20
2018-03-04T20:42:49.946Z,12.40
2018-03-04T20:45:17.470Z,12.93
2018-03-04T20:47:45.794Z,11.97
2018-03-04T20:50:13.323Z,12.30
2018-03-04T20:52:40.882Z,11.77
2018-03-04T20:55:08.410Z,13.33
2018-03-04T20:57:36.744Z,10.40
2018-03-04T21:00:04.368Z,11.33
2018-03-04T21:02:32.711Z,12.00
2018-03-04T21:05:00.246Z,12.83
2018-03-04T21:07:27.795Z,11.97
2018-03-04T21:09:56.163Z,14.30
2018-03-04T21:12:24.367Z,12.97
2018-03-04T21:14:51.911Z,14.10
2018-03-04T21:17:19.471Z,14.00
2018-03-04T21:19:46.998Z,12.23
2018-03-04T21:22:15.322Z,12.70
2018-03-04T21:24:42.855Z,12.43
2018-03-04T21:27:10.411Z,12.73
2018-03-04T21:29:37.958Z,12.90
2018-03-04T21:32:05.530Z,13.00
2018-03-04T21:34:33.133Z,12.10
2018-03-04T21:37:00.693Z,13.33
2018-03-04T21:39:28.239Z,12.83
2018-03-04T21:41:55.790Z,11.70
2018-03-04T21:44:23.318Z,12.10
2018-03-04T21:46:50.871Z,11.97
2018-03-04T21:49:19.169Z,10.57
2018-03-04T21:51:46.842Z,12.00
2018-03-04T21:54:14.376Z,11.07
2018-03-04T21:56:41.945Z,11.60
2018-03-04T21:59:09.482Z,12.57
2018-03-04T22:01:37.803Z,11.47
2018-03-04T22:04:05.332Z,13.07
2018-03-04T22:06:32.882Z,10.50
2018-03-04T22:09:01.182Z,10.13
2018-03-04T22:11:28.720Z,11.17
2018-03-04T22:13:57.046Z,10.17
2018-03-04T22:16:24.582Z,10.07
2018-03-04T22:18:52.187Z,9.97
2018-03-04T22:21:19.720Z,9.80
2018-03-04T22:23:47.272Z,8.63
2018-03-04T22:26:14.812Z,11.40
2018-03-04T22:28:42.641Z,9.47
2018-03-04T22:31:10.270Z,8.37
2018-03-04T22:33:37.822Z,9.40
2018-03-04T22:36:05.373Z,9.60
2018-03-04T22:38:32.962Z,7.33
2018-03-04T22:41:00.620Z,9.40
2018-03-04T22:43:28.175Z,8.70
2018-03-04T22:45:56.472Z,7.50
2018-03-04T22:48:24.017Z,8.80
2018-03-04T22:50:51.791Z,7.90
2018-03-04T22:53:19.342Z,7.10
2018-03-04T22:55:47.039Z,9.10
2018-03-04T22:58:15.360Z,6.67
2018-03-04T23:00:42.886Z,7.10
2018-03-04T23:03:11.210Z,8.83
2018-03-04T23:05:38.750Z,7.80
2018-03-04T23:08:06.322Z,8.07
2018-03-04T23:10:33.853Z,6.70
2018-03-04T23:13:02.232Z,7.87
2018-03-04T23:15:29.794Z,7.50
2018-03-04T23:17:57.341Z,5.90
2018-03-04T23:20:25.638Z,6.67
2018-03-04T23:22:53.191Z,6.50
2018-03-04T23:25:20.742Z,4.97
2018-03-04T23:27:49.143Z,5.27
2018-03-04T23:30:16.689Z,6.40
2018-03-04T23:32:44.241Z,4.70
2018-03-04T23:35:12.540Z,4.60
2018-03-04T23:37:40.088Z,6.27
2018-03-04T23:40:07.613Z,4.67
2018-03-04T23:42:35.189Z,5.03
2018-03-04T23:45:03.484Z,5.33
2018-03-04T23:47:31.194Z,5.00
2018-03-04T23:49:58.731Z,6.67
2018-03-04T23:52:26.275Z,5.63
2018-03-04T23:54:53.799Z,4.97
2018-03-04T23:57:22.115Z,6.03
2018-03-04T23:59:49.634Z,5.20
